Terschuur, Netherlands
Current Conditions -  °F | °C
As of 10:25 AM on Monday 20 Oct 2014 (Local Time) from EHDL Reporting Station
Broken Clouds Broken Clouds  
Wind Chill: 57°   Ceiling: 1000
Heat Index: 57°   Visibility: 6mi
Dew Point: 55°   Wind: 10mph
Humidity: 94%   Direction: 230°SW
Pressure: 29.97"   Gusts: NA
Location:  52.17°N, 5.52°E
Report Text: EHDL 200825Z AUTO 23009KT 9999 FEW008 BKN010 BKN014 14/13 Q1015 GRN
Loading
Personal Weather Stations






























Interactive Weather Map
Tropical Storm Tracking
New forecast layout! Learn more

10-Day Weather Forecast

Advertisements
Track Severe Weather on mobile